createdAt,value
2019-05-03T00:00:57.302Z,6.90
2019-05-03T00:03:26.799Z,6.97
2019-05-03T00:05:58.064Z,7.60
2019-05-03T00:08:27.592Z,6.47
2019-05-03T00:10:57.288Z,7.60
2019-05-03T00:13:28.430Z,7.23
2019-05-03T00:16:02.762Z,7.77
2019-05-03T00:18:32.735Z,7.33
2019-05-03T00:21:02.585Z,6.47
2019-05-03T00:23:32.497Z,6.33
2019-05-03T00:26:02.659Z,5.20
2019-05-03T00:28:32.509Z,6.40
2019-05-03T00:31:02.213Z,5.53
2019-05-03T00:33:31.903Z,6.43
2019-05-03T00:36:18.548Z,6.07
2019-05-03T00:38:48.794Z,5.70
2019-05-03T00:41:18.309Z,6.67
2019-05-03T00:43:47.971Z,6.73
2019-05-03T00:46:17.486Z,6.37
2019-05-03T00:48:46.998Z,6.60
2019-05-03T00:51:16.494Z,6.37
2019-05-03T00:53:46.188Z,6.57
2019-05-03T00:56:15.790Z,6.70
2019-05-03T00:58:49.727Z,7.03
2019-05-03T01:01:19.563Z,6.70
2019-05-03T01:03:49.168Z,6.17
2019-05-03T01:06:18.741Z,7.10
2019-05-03T01:08:48.349Z,5.87
2019-05-03T01:11:18.050Z,7.47
2019-05-03T01:13:47.579Z,6.50
2019-05-03T01:16:18.698Z,6.37
2019-05-03T01:18:48.272Z,6.53
2019-05-03T01:21:18.114Z,6.63
2019-05-03T01:23:47.630Z,7.40
2019-05-03T01:26:17.356Z,6.93
2019-05-03T01:28:46.866Z,8.00
2019-05-03T01:31:16.358Z,7.80
2019-05-03T01:33:45.869Z,7.97
2019-05-03T01:36:16.892Z,8.43
2019-05-03T01:38:46.747Z,7.43
2019-05-03T01:41:16.204Z,8.03
2019-05-03T01:43:45.724Z,8.33
2019-05-03T01:46:15.207Z,9.67
2019-05-03T01:48:49.096Z,8.60
2019-05-03T01:51:22.948Z,10.20
2019-05-03T01:53:52.455Z,9.47
2019-05-03T01:56:22.376Z,9.80
2019-05-03T01:58:52.401Z,9.80
2019-05-03T02:01:22.159Z,8.90
2019-05-03T02:03:53.424Z,8.57
2019-05-03T02:06:22.940Z,8.20
2019-05-03T02:08:52.497Z,8.87
2019-05-03T02:11:22.299Z,8.90
2019-05-03T02:13:52.241Z,8.60
2019-05-03T02:16:21.968Z,9.00
2019-05-03T02:18:51.884Z,8.23
2019-05-03T02:21:21.756Z,8.90
2019-05-03T02:23:52.072Z,9.20
2019-05-03T02:26:22.419Z,10.20
2019-05-03T02:28:52.811Z,8.50
2019-05-03T02:31:23.333Z,8.13
2019-05-03T02:33:53.607Z,7.80
2019-05-03T02:36:23.550Z,7.97
2019-05-03T02:38:53.849Z,8.37
2019-05-03T02:41:23.525Z,7.90
2019-05-03T02:43:57.591Z,9.00
2019-05-03T02:46:46.786Z,8.57
2019-05-03T02:49:20.583Z,8.37
2019-05-03T02:51:50.122Z,8.17
2019-05-03T02:54:20.024Z,9.00
2019-05-03T02:56:49.565Z,8.47
2019-05-03T02:59:19.200Z,10.60
2019-05-03T03:01:48.916Z,9.27
2019-05-03T03:04:19.116Z,9.93
2019-05-03T03:06:49.968Z,9.77
2019-05-03T03:09:25.608Z,7.77
2019-05-03T03:11:57.416Z,7.80
2019-05-03T03:14:30.490Z,9.17
2019-05-03T03:17:06.418Z,8.20
2019-05-03T03:19:36.708Z,9.90
2019-05-03T03:22:08.134Z,8.40
2019-05-03T03:24:40.643Z,8.80
2019-05-03T03:27:16.448Z,8.30
2019-05-03T03:29:50.958Z,8.37
2019-05-03T03:32:31.372Z,9.23
2019-05-03T03:35:22.150Z,8.63
2019-05-03T03:37:51.912Z,8.87
2019-05-03T03:40:25.246Z,8.37
2019-05-03T03:42:55.961Z,8.23
2019-05-03T03:45:25.591Z,8.17
2019-05-03T03:47:56.579Z,8.47
2019-05-03T03:50:27.508Z,8.67
2019-05-03T03:52:59.423Z,8.03
2019-05-03T03:55:32.462Z,7.23
2019-05-03T03:58:02.797Z,7.90
2019-05-03T04:00:32.810Z,8.27
2019-05-03T04:03:05.893Z,7.90
2019-05-03T04:05:35.883Z,8.10
2019-05-03T04:08:05.948Z,9.57
2019-05-03T04:10:35.536Z,8.40
2019-05-03T04:13:06.995Z,8.83
2019-05-03T04:15:39.815Z,8.43
2019-05-03T04:18:09.507Z,8.50
2019-05-03T04:20:39.528Z,6.90
2019-05-03T04:23:09.270Z,8.80
2019-05-03T04:25:39.327Z,7.53
2019-05-03T04:28:10.194Z,8.53
2019-05-03T04:30:39.752Z,8.17
2019-05-03T04:33:09.272Z,7.90
2019-05-03T04:35:38.903Z,8.10
2019-05-03T04:38:08.424Z,6.83
2019-05-03T04:40:37.958Z,6.40
2019-05-03T04:43:07.468Z,7.30
2019-05-03T04:45:37.008Z,6.90
2019-05-03T04:48:07.061Z,7.80
2019-05-03T04:50:37.214Z,7.30
2019-05-03T04:53:07.273Z,7.50
2019-05-03T04:55:36.821Z,6.67
2019-05-03T04:58:06.406Z,7.20
2019-05-03T05:00:36.226Z,7.33
2019-05-03T05:03:06.271Z,6.70
2019-05-03T05:05:36.668Z,7.30
2019-05-03T05:08:06.751Z,5.77
2019-05-03T05:10:36.587Z,6.20
2019-05-03T05:13:06.239Z,7.70
2019-05-03T05:15:36.010Z,5.90
2019-05-03T05:18:20.970Z,5.73
2019-05-03T05:20:52.696Z,5.90
2019-05-03T05:23:22.585Z,7.20
2019-05-03T05:25:51.959Z,6.57
2019-05-03T05:28:38.345Z,7.10
2019-05-03T05:31:09.499Z,7.77
2019-05-03T05:33:39.019Z,7.30
2019-05-03T05:36:08.589Z,6.27
2019-05-03T05:38:38.478Z,6.93
2019-05-03T05:41:08.503Z,6.70
2019-05-03T05:43:38.096Z,7.17
2019-05-03T05:46:07.733Z,6.43
2019-05-03T05:48:45.209Z,5.80
2019-05-03T05:51:16.177Z,6.80
2019-05-03T05:53:45.983Z,6.93
2019-05-03T05:56:17.639Z,6.10
2019-05-03T05:58:57.754Z,5.27
2019-05-03T06:01:29.462Z,6.43
2019-05-03T06:03:59.134Z,5.73
2019-05-03T06:06:36.491Z,6.37
2019-05-03T06:09:12.839Z,5.43
2019-05-03T06:11:50.061Z,5.77
2019-05-03T06:14:21.412Z,6.07
2019-05-03T06:17:08.855Z,5.37
2019-05-03T06:19:52.244Z,5.23
2019-05-03T06:22:25.547Z,4.83
2019-05-03T06:24:56.918Z,5.33
2019-05-03T06:27:28.258Z,4.73
2019-05-03T06:29:59.554Z,4.60
2019-05-03T06:32:30.828Z,4.00
2019-05-03T06:35:00.391Z,5.10
2019-05-03T06:37:37.621Z,4.80
2019-05-03T06:40:08.875Z,4.30
2019-05-03T06:42:50.956Z,3.90
2019-05-03T06:45:11.859Z,4.20
2019-05-03T06:47:45.983Z,4.90
2019-05-03T06:50:14.510Z,4.67
2019-05-03T06:52:44.703Z,4.50
2019-05-03T06:55:14.750Z,4.03
2019-05-03T06:57:49.515Z,4.00
2019-05-03T07:00:19.352Z,3.17
2019-05-03T07:02:54.589Z,3.27
2019-05-03T07:05:31.719Z,3.37
2019-05-03T07:08:19.059Z,3.70
2019-05-03T07:10:56.212Z,4.13
2019-05-03T07:13:25.745Z,3.60
2019-05-03T07:15:56.018Z,4.43
2019-05-03T07:18:25.978Z,3.27
2019-05-03T07:20:57.270Z,3.73
2019-05-03T07:23:26.876Z,3.67
2019-05-03T07:25:56.513Z,3.30
2019-05-03T07:28:26.324Z,2.90
2019-05-03T07:30:55.824Z,2.57
2019-05-03T07:33:27.228Z,2.97
2019-05-03T07:35:56.818Z,3.07
2019-05-03T07:38:26.631Z,2.50
2019-05-03T07:40:56.176Z,2.67
2019-05-03T07:43:25.919Z,2.77
2019-05-03T07:45:55.658Z,2.27
2019-05-03T07:48:26.170Z,2.70
2019-05-03T07:50:55.910Z,2.20
2019-05-03T07:53:25.601Z,2.50
2019-05-03T07:55:55.058Z,3.10
2019-05-03T07:58:26.391Z,2.77
2019-05-03T08:01:06.064Z,3.83
2019-05-03T08:03:28.922Z,3.50
2019-05-03T08:05:58.475Z,3.10
2019-05-03T08:08:27.987Z,4.27
2019-05-03T08:10:57.504Z,4.20
2019-05-03T08:13:27.090Z,4.20
2019-05-03T08:15:56.682Z,4.33
2019-05-03T08:18:26.309Z,4.30
2019-05-03T08:20:55.977Z,3.00
2019-05-03T08:23:29.999Z,3.73
2019-05-03T08:25:56.875Z,3.90
2019-05-03T08:28:26.960Z,3.43
2019-05-03T08:31:15.063Z,3.50
2019-05-03T08:33:59.794Z,3.20
2019-05-03T08:36:30.978Z,2.43
2019-05-03T08:39:00.520Z,1.50
2019-05-03T08:41:32.027Z,2.50
2019-05-03T08:44:01.577Z,2.27
2019-05-03T08:46:31.143Z,2.73
2019-05-03T08:49:01.286Z,2.73
2019-05-03T08:51:31.258Z,3.10
2019-05-03T08:54:00.725Z,2.60
2019-05-03T08:56:30.239Z,3.00
2019-05-03T08:58:59.816Z,2.30
2019-05-03T09:01:29.524Z,1.90
2019-05-03T09:03:59.073Z,2.50
2019-05-03T09:06:28.596Z,2.33
2019-05-03T09:08:58.122Z,2.63
2019-05-03T09:11:33.971Z,2.77
2019-05-03T09:14:00.724Z,2.20
2019-05-03T09:16:32.590Z,2.20
2019-05-03T09:19:02.126Z,2.43
2019-05-03T09:21:31.615Z,2.30
2019-05-03T09:24:01.106Z,3.00
2019-05-03T09:26:30.762Z,1.93
2019-05-03T09:29:00.249Z,2.47
2019-05-03T09:31:29.959Z,2.27
2019-05-03T09:33:59.509Z,2.10
2019-05-03T09:36:29.319Z,2.07
2019-05-03T09:38:58.780Z,1.80
2019-05-03T09:41:28.825Z,2.27
2019-05-03T09:43:58.293Z,2.20
2019-05-03T09:46:27.838Z,1.80
2019-05-03T09:49:09.975Z,2.63
2019-05-03T09:51:29.252Z,2.20
2019-05-03T09:54:15.725Z,2.57
2019-05-03T09:56:58.658Z,2.43
2019-05-03T09:59:29.440Z,2.73
2019-05-03T10:01:59.560Z,2.20
2019-05-03T10:04:29.198Z,2.17
2019-05-03T10:06:58.668Z,2.13
2019-05-03T10:09:28.367Z,2.27
2019-05-03T10:11:58.219Z,2.30
2019-05-03T10:14:28.003Z,2.50
2019-05-03T10:16:59.217Z,2.23
2019-05-03T10:19:37.664Z,2.63
2019-05-03T10:22:00.002Z,2.10
2019-05-03T10:24:29.592Z,2.80
2019-05-03T10:26:59.515Z,2.17
2019-05-03T10:29:29.099Z,2.10
2019-05-03T10:32:02.954Z,2.13
2019-05-03T10:34:32.446Z,1.83
2019-05-03T10:37:02.414Z,2.27
2019-05-03T10:39:32.159Z,2.00
2019-05-03T10:42:01.660Z,1.83
2019-05-03T10:44:31.327Z,2.27
2019-05-03T10:47:01.119Z,1.73
2019-05-03T10:49:30.751Z,1.53
2019-05-03T10:52:01.906Z,1.90
2019-05-03T10:54:31.540Z,1.60
2019-05-03T10:57:02.689Z,1.57
2019-05-03T10:59:32.205Z,1.97
2019-05-03T11:02:10.404Z,1.73
2019-05-03T11:04:40.077Z,1.70
2019-05-03T11:07:09.702Z,1.70
2019-05-03T11:09:48.494Z,1.63
2019-05-03T11:12:10.502Z,1.77
2019-05-03T11:14:40.072Z,1.40
2019-05-03T11:17:09.570Z,2.00
2019-05-03T11:19:39.238Z,1.40
2019-05-03T11:22:08.779Z,1.70
2019-05-03T11:24:38.285Z,2.00
2019-05-03T11:27:09.553Z,1.80
2019-05-03T11:29:39.043Z,1.50
2019-05-03T11:32:16.841Z,1.97
2019-05-03T11:34:55.387Z,2.10
2019-05-03T11:37:42.191Z,1.73
2019-05-03T11:40:12.518Z,1.90
2019-05-03T11:42:42.209Z,1.40
2019-05-03T11:45:15.138Z,1.43
2019-05-03T11:47:45.738Z,2.20
2019-05-03T11:50:16.207Z,2.40
2019-05-03T11:52:47.267Z,2.63
2019-05-03T11:55:17.212Z,2.33
2019-05-03T11:57:46.747Z,1.73
2019-05-03T12:00:18.679Z,1.67
2019-05-03T12:02:49.839Z,2.40
2019-05-03T12:05:27.296Z,2.03
2019-05-03T12:07:57.135Z,1.97
2019-05-03T12:10:46.086Z,2.17
2019-05-03T12:13:05.106Z,1.87
2019-05-03T12:15:35.191Z,1.90
2019-05-03T12:18:07.682Z,2.10
2019-05-03T12:20:39.216Z,2.50
2019-05-03T12:23:09.783Z,2.33
2019-05-03T12:25:40.607Z,2.17
2019-05-03T12:28:10.808Z,2.10
2019-05-03T12:30:40.784Z,1.93
2019-05-03T12:33:10.666Z,1.90
2019-05-03T12:35:40.156Z,4.00
2019-05-03T12:38:09.780Z,2.13
2019-05-03T12:40:39.269Z,2.00
2019-05-03T12:43:08.840Z,2.10
2019-05-03T12:45:38.637Z,1.60
2019-05-03T12:48:08.831Z,1.93
2019-05-03T12:50:38.995Z,2.43
2019-05-03T12:53:08.700Z,1.67
2019-05-03T12:55:38.276Z,1.90
2019-05-03T12:58:08.038Z,2.00
2019-05-03T13:00:50.874Z,2.27
2019-05-03T13:03:24.544Z,2.90
2019-05-03T13:05:55.467Z,1.77
2019-05-03T13:08:35.221Z,2.50
2019-05-03T13:11:06.711Z,2.53
2019-05-03T13:13:36.556Z,3.03
2019-05-03T13:16:07.771Z,3.87
2019-05-03T13:18:37.664Z,2.60
2019-05-03T13:21:07.500Z,2.47
2019-05-03T13:23:37.221Z,2.70
2019-05-03T13:26:06.770Z,2.30
2019-05-03T13:28:36.423Z,2.30
2019-05-03T13:31:06.239Z,2.80
2019-05-03T13:33:36.198Z,2.13
2019-05-03T13:36:07.217Z,2.20
2019-05-03T13:38:36.770Z,1.90
2019-05-03T13:41:06.759Z,2.10
2019-05-03T13:43:36.403Z,2.10
2019-05-03T13:46:06.276Z,2.27
2019-05-03T13:48:45.391Z,2.30
2019-05-03T13:51:07.822Z,3.00
2019-05-03T13:53:37.640Z,1.93
2019-05-03T13:56:07.124Z,2.10
2019-05-03T13:58:36.702Z,2.20
2019-05-03T14:01:06.432Z,2.70
2019-05-03T14:03:36.495Z,3.07
2019-05-03T14:06:08.629Z,2.30
2019-05-03T14:08:37.571Z,1.90
2019-05-03T14:11:07.343Z,2.17
2019-05-03T14:13:36.893Z,2.03
2019-05-03T14:16:07.183Z,1.83
2019-05-03T14:18:37.101Z,2.07
2019-05-03T14:21:10.876Z,2.00
2019-05-03T14:23:58.339Z,1.67
2019-05-03T14:26:27.903Z,2.70
2019-05-03T14:28:57.555Z,2.77
2019-05-03T14:31:27.140Z,2.60
2019-05-03T14:33:56.762Z,2.53
2019-05-03T14:36:27.373Z,2.50
2019-05-03T14:38:56.868Z,2.73
2019-05-03T14:41:26.527Z,2.60
2019-05-03T14:43:56.102Z,3.20
2019-05-03T14:46:32.648Z,2.43
2019-05-03T14:48:56.964Z,2.50
2019-05-03T14:51:26.646Z,2.63
2019-05-03T14:53:57.039Z,2.73
2019-05-03T14:56:31.198Z,2.30
2019-05-03T14:59:18.564Z,2.30
2019-05-03T15:02:05.265Z,2.80
2019-05-03T15:04:35.170Z,4.17
2019-05-03T15:07:06.033Z,3.07
2019-05-03T15:09:35.788Z,2.83
2019-05-03T15:12:05.787Z,3.43
2019-05-03T15:14:35.720Z,3.37
2019-05-03T15:17:05.519Z,3.10
2019-05-03T15:19:35.136Z,2.27
2019-05-03T15:22:05.704Z,4.50
2019-05-03T15:24:35.610Z,4.37
2019-05-03T15:27:05.265Z,3.70
2019-05-03T15:29:35.584Z,3.40
2019-05-03T15:32:05.347Z,2.73
2019-05-03T15:34:35.548Z,3.60
2019-05-03T15:37:05.735Z,2.80
2019-05-03T15:39:35.404Z,3.00
2019-05-03T15:42:05.363Z,2.30
2019-05-03T15:44:54.502Z,3.10
2019-05-03T15:47:25.634Z,2.30
2019-05-03T15:49:55.421Z,3.10
2019-05-03T15:52:25.046Z,3.00
2019-05-03T15:54:55.202Z,2.70
2019-05-03T15:57:25.355Z,2.67
2019-05-03T15:59:55.253Z,3.57
2019-05-03T16:02:25.003Z,3.00
2019-05-03T16:04:57.208Z,2.40
2019-05-03T16:07:26.023Z,3.30
2019-05-03T16:09:55.527Z,3.83
2019-05-03T16:12:29.142Z,6.57
2019-05-03T16:14:59.051Z,3.37
2019-05-03T16:17:28.993Z,6.53
2019-05-03T16:19:58.687Z,3.73
2019-05-03T16:22:28.258Z,4.23
2019-05-03T16:24:58.081Z,4.40
2019-05-03T16:27:27.655Z,3.73
2019-05-03T16:29:57.676Z,4.10
2019-05-03T16:32:27.350Z,3.27
2019-05-03T16:34:56.935Z,4.00
2019-05-03T16:37:26.529Z,3.40
2019-05-03T16:39:57.833Z,4.40
2019-05-03T16:42:27.901Z,4.07
2019-05-03T16:44:57.488Z,3.80
2019-05-03T16:47:27.143Z,4.33
2019-05-03T16:49:57.026Z,3.70
2019-05-03T16:52:26.534Z,4.00
2019-05-03T16:54:56.146Z,4.27
2019-05-03T16:57:25.752Z,4.60
2019-05-03T16:59:55.295Z,4.30
2019-05-03T17:02:25.237Z,4.90
2019-05-03T17:04:56.761Z,5.27
2019-05-03T17:07:28.045Z,4.80
2019-05-03T17:09:59.411Z,4.60
2019-05-03T17:12:30.628Z,4.43
2019-05-03T17:15:00.220Z,5.43
2019-05-03T17:17:29.837Z,4.40
2019-05-03T17:19:59.692Z,3.90
2019-05-03T17:22:29.359Z,3.73
2019-05-03T17:24:58.930Z,3.77
2019-05-03T17:27:28.485Z,4.17
2019-05-03T17:29:58.061Z,3.87
2019-05-03T17:32:27.553Z,4.97
2019-05-03T17:34:57.329Z,4.20
2019-05-03T18:09:39.708Z,3.40
2019-05-03T18:12:09.712Z,4.57
2019-05-03T18:14:39.672Z,3.80
2019-05-03T18:17:09.493Z,4.90
2019-05-03T18:19:40.064Z,3.83
2019-05-03T18:22:10.038Z,4.60
2019-05-03T18:24:39.585Z,4.87
2019-05-03T18:27:09.269Z,4.20
2019-05-03T18:29:38.822Z,3.20
2019-05-03T18:32:08.334Z,3.87
2019-05-03T18:34:37.970Z,4.00
2019-05-03T18:37:07.606Z,4.10
2019-05-03T18:39:37.189Z,4.60
2019-05-03T18:42:08.327Z,3.53
2019-05-03T18:44:45.710Z,3.77
2019-05-03T18:47:20.294Z,3.93
2019-05-03T18:49:48.975Z,3.40
2019-05-03T18:52:18.464Z,3.67
2019-05-03T18:54:48.153Z,4.47
2019-05-03T18:57:17.849Z,3.80
2019-05-03T18:59:48.016Z,4.83
2019-05-03T19:02:20.365Z,4.20
2019-05-03T19:04:51.403Z,4.33
2019-05-03T19:07:37.478Z,4.37
2019-05-03T19:10:22.333Z,4.13
2019-05-03T19:13:11.728Z,4.57
2019-05-03T19:15:41.519Z,4.13
2019-05-03T19:18:24.569Z,4.10
2019-05-03T19:20:55.066Z,4.30
2019-05-03T19:23:25.016Z,4.33
2019-05-03T19:25:55.301Z,5.20
2019-05-03T19:28:25.156Z,4.93
2019-05-03T19:30:55.069Z,5.47
2019-05-03T19:33:25.379Z,6.00
2019-05-03T19:35:55.236Z,4.90
2019-05-03T19:38:24.805Z,5.47
2019-05-03T19:40:54.830Z,4.83
2019-05-03T19:43:27.115Z,5.67
2019-05-03T19:45:55.918Z,4.40
2019-05-03T19:48:25.734Z,5.00
2019-05-03T19:50:55.318Z,5.40
2019-05-03T19:53:27.467Z,4.47
2019-05-03T19:55:57.460Z,4.70
2019-05-03T19:58:27.456Z,4.83
2019-05-03T20:01:20.185Z,5.00
2019-05-03T20:03:54.571Z,5.73
2019-05-03T20:06:31.479Z,6.80
2019-05-03T20:09:10.366Z,5.40
2019-05-03T20:11:40.072Z,5.53
2019-05-03T20:14:09.906Z,5.47
2019-05-03T20:16:39.640Z,6.50
2019-05-03T20:19:18.762Z,5.30
2019-05-03T20:21:41.177Z,4.97
2019-05-03T20:24:11.033Z,5.30
2019-05-03T20:26:40.801Z,6.03
2019-05-03T20:29:10.571Z,5.53
2019-05-03T20:31:40.107Z,7.67
2019-05-03T20:34:09.650Z,6.50
2019-05-03T20:36:39.326Z,5.17
2019-05-03T20:39:09.220Z,4.80
2019-05-03T20:41:39.061Z,6.20
2019-05-03T20:44:16.319Z,5.73
2019-05-03T20:46:51.077Z,5.13
2019-05-03T20:49:21.563Z,5.50
2019-05-03T20:51:51.554Z,6.00
2019-05-03T20:54:21.164Z,5.60
2019-05-03T20:56:50.891Z,6.60
2019-05-03T20:59:20.725Z,6.47
2019-05-03T21:01:50.740Z,7.43
2019-05-03T21:04:20.469Z,9.90
2019-05-03T21:06:50.209Z,7.67
2019-05-03T21:09:19.856Z,7.03
2019-05-03T21:11:49.687Z,8.00
2019-05-03T21:14:19.455Z,7.70
2019-05-03T21:17:07.142Z,8.50
2019-05-03T21:19:38.479Z,8.00
2019-05-03T21:22:10.706Z,8.70
2019-05-03T21:24:42.487Z,10.00
2019-05-03T21:27:15.262Z,8.90
2019-05-03T21:29:54.860Z,8.47
2019-05-03T21:32:25.053Z,8.10
2019-05-03T21:34:55.769Z,7.50
2019-05-03T21:37:25.550Z,8.70
2019-05-03T21:39:55.664Z,8.07
2019-05-03T21:42:25.271Z,7.00
2019-05-03T21:44:55.532Z,7.47
2019-05-03T21:47:29.884Z,8.43
2019-05-03T21:50:00.822Z,8.20
2019-05-03T21:52:30.472Z,7.87
2019-05-03T21:54:59.996Z,8.63
2019-05-03T21:57:29.565Z,7.43
2019-05-03T21:59:59.428Z,8.43
2019-05-03T22:02:31.597Z,9.93
2019-05-03T22:05:01.175Z,9.80
2019-05-03T22:07:30.702Z,9.40
2019-05-03T22:10:00.228Z,9.80
2019-05-03T22:12:30.209Z,10.17
2019-05-03T22:15:05.089Z,10.20
2019-05-03T22:17:52.938Z,9.83
2019-05-03T22:20:24.592Z,10.50
2019-05-03T22:22:55.749Z,9.40
2019-05-03T22:25:26.996Z,10.33
2019-05-03T22:27:56.464Z,9.10
2019-05-03T22:30:26.922Z,8.50
2019-05-03T22:32:56.685Z,9.40
2019-05-03T22:35:26.209Z,9.37
2019-05-03T22:37:55.696Z,8.03
2019-05-03T22:40:25.333Z,8.80
2019-05-03T22:42:54.904Z,8.40
2019-05-03T22:45:24.646Z,9.63
2019-05-03T22:47:54.977Z,7.60
2019-05-03T22:50:27.055Z,9.10
2019-05-03T22:52:58.172Z,9.10
2019-05-03T22:55:27.877Z,8.43
2019-05-03T22:57:57.491Z,8.00
2019-05-03T23:00:27.180Z,8.40
2019-05-03T23:02:56.758Z,8.60
2019-05-03T23:05:26.522Z,7.70
2019-05-03T23:08:01.341Z,7.57
2019-05-03T23:10:31.509Z,8.10
2019-05-03T23:13:02.607Z,7.97
2019-05-03T23:15:32.253Z,8.00
2019-05-03T23:18:01.926Z,8.33
2019-05-03T23:20:42.384Z,8.40
2019-05-03T23:23:14.457Z,8.27
2019-05-03T23:25:45.875Z,7.83
2019-05-03T23:28:15.797Z,7.87
2019-05-03T23:30:45.398Z,8.33
2019-05-03T23:33:14.885Z,8.30
2019-05-03T23:35:44.655Z,8.07
2019-05-03T23:38:15.147Z,8.40
2019-05-03T23:40:44.904Z,8.67
2019-05-03T23:43:14.505Z,8.20
2019-05-03T23:45:45.256Z,8.90
2019-05-03T23:48:14.992Z,8.03
2019-05-03T23:50:44.670Z,8.27
2019-05-03T23:53:15.365Z,8.33
2019-05-03T23:55:47.015Z,9.13
2019-05-03T23:58:16.574Z,8.77
